createdAt,value
2022-07-31T00:01:27.165Z,23.26
2022-07-31T00:06:29.552Z,22.40
2022-07-31T00:08:58.744Z,23.12
2022-07-31T00:11:30.260Z,23.44
2022-07-31T00:14:00.001Z,23.55
2022-07-31T00:16:28.293Z,24.07
2022-07-31T00:19:00.147Z,23.57
2022-07-31T00:21:29.116Z,24.24
2022-07-31T00:23:58.340Z,23.66
2022-07-31T00:29:06.250Z,23.03
2022-07-31T00:31:38.874Z,23.18
2022-07-31T00:36:44.108Z,22.83
2022-07-31T00:39:13.467Z,22.83
2022-07-31T00:41:47.356Z,23.14
2022-07-31T00:44:22.566Z,23.28
2022-07-31T00:46:57.830Z,23.59
2022-07-31T00:55:10.378Z,24.25
2022-07-31T00:57:41.502Z,24.38
2022-07-31T01:00:16.692Z,23.28
2022-07-31T01:02:48.492Z,24.00
2022-07-31T01:05:21.182Z,23.02
2022-07-31T01:10:42.722Z,24.29
2022-07-31T01:13:21.039Z,23.19
2022-07-31T01:15:51.452Z,23.28
2022-07-31T01:18:21.711Z,23.28
2022-07-31T01:20:51.905Z,24.65
2022-07-31T01:23:37.714Z,24.42
2022-07-31T01:26:09.453Z,24.59
2022-07-31T01:28:56.435Z,24.52
2022-07-31T01:34:29.103Z,23.75
2022-07-31T01:37:03.600Z,24.95
2022-07-31T01:39:39.297Z,23.13
2022-07-31T01:42:10.069Z,22.71
2022-07-31T01:44:44.595Z,22.52
2022-07-31T01:47:22.755Z,22.43
2022-07-31T01:49:53.950Z,22.34
2022-07-31T01:52:31.566Z,22.53
2022-07-31T01:55:07.465Z,22.35
2022-07-31T01:57:37.737Z,22.35
2022-07-31T02:00:33.696Z,22.55
2022-07-31T02:03:09.406Z,22.67
2022-07-31T02:05:42.582Z,22.77
2022-07-31T02:08:13.701Z,24.22
2022-07-31T02:10:45.531Z,23.11
2022-07-31T02:13:16.992Z,24.90
2022-07-31T02:15:48.563Z,23.16
2022-07-31T02:18:27.794Z,23.27
2022-07-31T02:21:00.743Z,23.22
2022-07-31T02:23:30.642Z,23.17
2022-07-31T02:28:38.450Z,23.42
2022-07-31T02:31:11.838Z,23.04
2022-07-31T02:33:48.858Z,23.03
2022-07-31T02:36:22.943Z,23.60
2022-07-31T02:38:53.883Z,22.85
2022-07-31T02:41:23.538Z,22.91
2022-07-31T02:43:54.944Z,22.89
2022-07-31T02:46:29.933Z,23.29
2022-07-31T02:49:03.717Z,23.14
2022-07-31T02:59:18.235Z,22.96
2022-07-31T03:01:46.104Z,23.27
2022-07-31T03:04:20.939Z,24.04
2022-07-31T03:06:55.013Z,23.01
2022-07-31T03:09:27.253Z,23.84
2022-07-31T03:17:17.762Z,24.45
2022-07-31T03:19:46.645Z,24.81
2022-07-31T03:22:18.989Z,23.47
2022-07-31T03:24:50.826Z,22.76
2022-07-31T03:32:25.524Z,24.15
2022-07-31T03:34:59.473Z,24.27
2022-07-31T03:37:32.927Z,24.03
2022-07-31T03:40:03.623Z,24.39
2022-07-31T03:42:33.552Z,24.92
2022-07-31T03:47:33.968Z,23.18
2022-07-31T03:50:03.205Z,23.29
2022-07-31T03:52:33.965Z,23.06
2022-07-31T03:55:03.319Z,22.97
2022-07-31T03:57:34.297Z,22.85
2022-07-31T04:00:04.256Z,23.78
2022-07-31T04:02:55.861Z,24.22
2022-07-31T04:08:10.067Z,23.11
2022-07-31T04:10:42.178Z,22.95
2022-07-31T04:13:14.876Z,23.27
2022-07-31T04:15:47.845Z,24.05
2022-07-31T04:18:27.133Z,23.20
2022-07-31T04:26:38.154Z,23.81
2022-07-31T04:34:58.719Z,24.14
2022-07-31T04:40:07.334Z,22.91
2022-07-31T04:42:41.880Z,22.91
2022-07-31T04:45:25.006Z,22.79
2022-07-31T04:48:05.708Z,22.98
2022-07-31T04:50:38.805Z,23.11
2022-07-31T04:53:12.068Z,23.17
2022-07-31T04:55:44.244Z,24.28
2022-07-31T04:58:27.022Z,23.39
2022-07-31T05:01:31.989Z,24.37
2022-07-31T05:04:12.834Z,24.21
2022-07-31T05:06:45.838Z,23.11
2022-07-31T05:09:19.117Z,23.21
2022-07-31T05:17:12.514Z,23.25
2022-07-31T05:19:46.040Z,23.10
2022-07-31T05:22:17.438Z,23.05
2022-07-31T05:24:46.889Z,23.62
2022-07-31T05:27:15.166Z,23.46
2022-07-31T05:29:43.636Z,23.34
2022-07-31T05:32:23.531Z,23.15
2022-07-31T05:34:59.517Z,22.92
2022-07-31T05:37:31.421Z,23.14
2022-07-31T05:40:08.522Z,23.38
2022-07-31T05:42:38.012Z,23.29
2022-07-31T05:45:09.688Z,23.21
2022-07-31T05:50:10.965Z,24.13
2022-07-31T05:52:41.841Z,24.49
2022-07-31T05:55:13.210Z,24.24
2022-07-31T05:57:41.331Z,22.27
2022-07-31T06:00:12.287Z,22.08
2022-07-31T06:02:44.028Z,21.54
2022-07-31T06:05:17.964Z,21.52
2022-07-31T06:07:51.971Z,21.80
2022-07-31T06:10:25.556Z,22.00
2022-07-31T06:12:54.243Z,21.95
2022-07-31T06:15:26.642Z,21.94
2022-07-31T06:17:54.960Z,22.01
2022-07-31T06:20:33.141Z,22.04
2022-07-31T06:23:19.822Z,22.01
2022-07-31T06:25:52.209Z,21.68
2022-07-31T06:28:29.695Z,22.15
2022-07-31T06:31:17.221Z,22.14
2022-07-31T06:33:47.960Z,22.18
2022-07-31T06:36:20.761Z,22.14
2022-07-31T06:41:44.501Z,22.20
2022-07-31T06:44:14.251Z,22.11
2022-07-31T06:46:49.161Z,22.24
2022-07-31T06:49:22.058Z,21.83
2022-07-31T06:52:01.268Z,22.14
2022-07-31T06:54:41.849Z,22.25
2022-07-31T06:57:12.479Z,22.39
2022-07-31T06:59:47.399Z,22.30
2022-07-31T07:02:18.453Z,22.41
2022-07-31T07:04:57.323Z,22.21
2022-07-31T07:07:38.471Z,22.36
2022-07-31T07:12:37.792Z,22.27
2022-07-31T07:15:15.913Z,22.51
2022-07-31T07:20:24.138Z,22.37
2022-07-31T07:22:57.243Z,22.38
2022-07-31T07:25:26.538Z,22.41
2022-07-31T07:27:57.075Z,22.38
2022-07-31T07:30:28.849Z,22.57
2022-07-31T07:33:03.674Z,22.53
2022-07-31T07:38:09.370Z,22.42
2022-07-31T07:40:40.994Z,22.52
2022-07-31T07:46:06.528Z,22.34
2022-07-31T07:48:40.729Z,22.48
2022-07-31T07:51:10.201Z,22.51
2022-07-31T07:53:43.437Z,22.27
2022-07-31T07:56:13.694Z,22.15
2022-07-31T07:58:42.250Z,21.89
2022-07-31T08:01:11.126Z,22.00
2022-07-31T08:03:49.567Z,22.06
2022-07-31T08:08:59.271Z,21.58
2022-07-31T08:11:33.474Z,21.50
2022-07-31T08:14:06.453Z,21.49
2022-07-31T08:16:40.119Z,22.16
2022-07-31T08:19:07.902Z,22.45
2022-07-31T08:24:23.761Z,21.73
2022-07-31T08:27:14.721Z,21.64
2022-07-31T08:29:48.393Z,21.73
2022-07-31T08:32:19.789Z,22.64
2022-07-31T08:34:49.640Z,22.52
2022-07-31T08:37:51.111Z,22.55
2022-07-31T08:40:34.984Z,22.08
2022-07-31T08:46:03.624Z,22.48
2022-07-31T08:48:56.922Z,22.54
2022-07-31T08:51:27.128Z,22.65
2022-07-31T08:56:31.782Z,22.59
2022-07-31T08:59:04.603Z,22.55
2022-07-31T09:01:35.393Z,22.51
2022-07-31T09:04:06.922Z,22.55
2022-07-31T09:06:37.666Z,22.59
2022-07-31T09:09:11.329Z,22.58
2022-07-31T09:11:58.436Z,22.59
2022-07-31T09:14:30.340Z,22.47
2022-07-31T09:17:00.784Z,22.31
2022-07-31T09:19:53.118Z,21.98
2022-07-31T09:22:25.323Z,21.96
2022-07-31T09:24:56.672Z,22.02
2022-07-31T09:27:41.925Z,21.87
2022-07-31T09:30:13.451Z,21.73
2022-07-31T09:32:47.000Z,22.07
2022-07-31T09:35:16.080Z,21.72
2022-07-31T09:37:51.014Z,21.88
2022-07-31T09:40:22.158Z,21.84
2022-07-31T09:46:00.223Z,30.95
2022-07-31T09:48:31.474Z,30.16
2022-07-31T09:51:05.862Z,29.86
2022-07-31T09:53:43.755Z,30.07
2022-07-31T09:56:17.452Z,29.02
2022-07-31T09:58:48.974Z,27.74
2022-07-31T10:01:29.006Z,27.44
2022-07-31T10:04:00.829Z,28.23
2022-07-31T10:06:35.664Z,27.78
2022-07-31T10:09:08.615Z,27.11
2022-07-31T10:11:45.083Z,26.85
2022-07-31T10:14:16.364Z,27.30
2022-07-31T10:16:53.455Z,26.27
2022-07-31T10:19:27.030Z,27.39
2022-07-31T10:22:04.552Z,26.07
2022-07-31T10:24:43.023Z,27.57
2022-07-31T10:27:13.958Z,28.00
2022-07-31T10:29:42.749Z,27.07
2022-07-31T10:32:13.479Z,26.57
2022-07-31T10:34:42.744Z,25.99
2022-07-31T10:37:16.065Z,27.36
2022-07-31T10:39:49.691Z,26.94
2022-07-31T10:42:31.150Z,26.81
2022-07-31T10:45:06.655Z,26.53
2022-07-31T10:47:48.723Z,26.43
2022-07-31T10:50:21.952Z,26.56
2022-07-31T10:56:01.347Z,26.52
2022-07-31T10:58:39.634Z,27.01
2022-07-31T11:01:17.411Z,25.94
2022-07-31T11:03:50.134Z,25.45
2022-07-31T11:06:21.975Z,25.76
2022-07-31T11:08:56.771Z,25.64
2022-07-31T11:11:27.511Z,25.61
2022-07-31T11:14:06.988Z,25.71
2022-07-31T11:16:44.861Z,25.79
2022-07-31T11:19:16.269Z,25.63
2022-07-31T11:21:50.305Z,29.15
2022-07-31T11:24:30.226Z,25.72
2022-07-31T11:30:01.342Z,25.63
2022-07-31T11:35:16.981Z,25.27
2022-07-31T11:43:25.990Z,25.32
2022-07-31T11:45:59.649Z,25.97
2022-07-31T11:48:39.070Z,25.95
2022-07-31T11:51:17.097Z,26.10
2022-07-31T11:54:07.833Z,26.75
2022-07-31T11:56:40.623Z,26.99
2022-07-31T11:59:45.420Z,27.12
2022-07-31T12:02:17.129Z,27.02
2022-07-31T12:04:45.701Z,27.01
2022-07-31T12:07:18.459Z,27.73
2022-07-31T12:10:02.177Z,25.84
2022-07-31T12:12:32.451Z,25.78
2022-07-31T12:15:15.848Z,25.83
2022-07-31T12:17:47.018Z,25.75
2022-07-31T12:20:34.596Z,25.58
2022-07-31T12:25:55.410Z,25.97
2022-07-31T12:33:41.039Z,24.42
2022-07-31T12:36:17.226Z,25.20
2022-07-31T12:38:49.038Z,26.26
2022-07-31T12:43:51.399Z,25.25
2022-07-31T12:46:29.244Z,25.23
2022-07-31T12:51:46.249Z,24.75
2022-07-31T12:54:16.729Z,24.77
2022-07-31T12:56:51.493Z,24.51
2022-07-31T12:59:21.219Z,24.72
2022-07-31T13:01:52.637Z,25.72
2022-07-31T13:09:38.780Z,25.00
2022-07-31T13:12:16.670Z,24.84
2022-07-31T13:14:47.143Z,25.79
2022-07-31T13:17:18.350Z,24.58
2022-07-31T13:22:23.354Z,24.16
2022-07-31T13:24:54.178Z,25.07
2022-07-31T13:27:25.807Z,25.05
2022-07-31T13:29:54.431Z,25.49
2022-07-31T13:32:30.849Z,25.93
2022-07-31T13:35:25.489Z,26.02
2022-07-31T13:38:04.367Z,26.27
2022-07-31T13:40:51.118Z,25.98
2022-07-31T13:43:20.529Z,26.07
2022-07-31T13:45:51.369Z,25.78
2022-07-31T13:48:27.134Z,25.71
2022-07-31T13:56:39.423Z,25.48
2022-07-31T13:59:14.351Z,25.55
2022-07-31T14:02:03.326Z,25.77
2022-07-31T14:04:38.669Z,25.23
2022-07-31T14:07:15.020Z,25.24
2022-07-31T14:09:54.602Z,25.09
2022-07-31T14:12:29.841Z,26.09
2022-07-31T14:15:00.380Z,26.56
2022-07-31T14:17:29.379Z,26.47
2022-07-31T14:20:02.736Z,26.70
2022-07-31T14:22:37.160Z,26.59
2022-07-31T14:25:12.984Z,26.92
2022-07-31T14:27:46.654Z,26.67
2022-07-31T14:30:20.062Z,25.98
2022-07-31T14:32:54.742Z,25.88
2022-07-31T14:41:00.961Z,25.41
2022-07-31T14:43:32.945Z,25.21
2022-07-31T14:46:03.325Z,25.16
2022-07-31T14:48:31.648Z,25.27
2022-07-31T14:51:02.731Z,25.51
2022-07-31T14:53:34.059Z,25.65
2022-07-31T14:56:34.768Z,25.76
2022-07-31T15:02:06.039Z,25.46
2022-07-31T15:04:45.129Z,25.34
2022-07-31T15:07:34.264Z,25.42
2022-07-31T15:10:08.660Z,25.19
2022-07-31T15:12:39.640Z,25.29
2022-07-31T15:15:10.375Z,25.32
2022-07-31T15:17:43.460Z,25.28
2022-07-31T15:20:15.385Z,25.44
2022-07-31T15:22:46.213Z,25.50
2022-07-31T15:25:18.654Z,25.78
2022-07-31T15:27:50.753Z,25.81
2022-07-31T15:35:36.678Z,25.72
2022-07-31T15:38:07.047Z,25.32
2022-07-31T15:40:41.493Z,25.34
2022-07-31T15:43:12.277Z,25.43
2022-07-31T15:45:45.525Z,24.93
2022-07-31T15:48:24.656Z,26.07
2022-07-31T15:50:54.460Z,26.03
2022-07-31T15:53:42.819Z,25.75
2022-07-31T15:56:13.892Z,25.74
2022-07-31T15:58:50.873Z,26.01
2022-07-31T16:01:33.656Z,25.99
2022-07-31T16:10:14.927Z,26.16
2022-07-31T16:12:55.142Z,25.89
2022-07-31T16:15:28.705Z,25.97
2022-07-31T16:17:59.711Z,25.89
2022-07-31T16:20:32.322Z,25.67
2022-07-31T16:23:04.697Z,25.46
2022-07-31T16:25:42.214Z,25.39
2022-07-31T16:28:11.005Z,25.41
2022-07-31T16:30:43.154Z,25.51
2022-07-31T16:33:17.998Z,25.49
2022-07-31T16:36:03.699Z,25.51
2022-07-31T16:38:36.012Z,25.14
2022-07-31T16:43:49.594Z,25.32
2022-07-31T16:46:24.914Z,25.12
2022-07-31T16:48:54.737Z,25.29
2022-07-31T17:01:58.182Z,25.12
2022-07-31T17:04:29.140Z,25.04
2022-07-31T17:06:59.691Z,25.93
2022-07-31T17:12:18.795Z,25.33
2022-07-31T17:17:19.446Z,25.39
2022-07-31T17:19:56.099Z,25.48
2022-07-31T17:22:27.024Z,25.41
2022-07-31T17:24:56.125Z,25.48
2022-07-31T17:27:25.492Z,25.63
2022-07-31T17:29:56.114Z,25.48
2022-07-31T17:32:38.929Z,25.48
2022-07-31T17:37:41.056Z,26.05
2022-07-31T17:40:33.568Z,25.66
2022-07-31T17:45:37.157Z,25.61
2022-07-31T17:48:36.549Z,25.70
2022-07-31T17:51:11.515Z,25.21
2022-07-31T17:56:36.821Z,25.38
2022-07-31T17:59:07.555Z,27.32
2022-07-31T18:01:40.971Z,24.70
2022-07-31T18:07:10.303Z,24.61
2022-07-31T18:09:49.892Z,24.41
2022-07-31T18:12:21.415Z,25.66
2022-07-31T18:15:00.081Z,26.18
2022-07-31T18:17:31.319Z,24.89
2022-07-31T18:20:11.240Z,25.31
2022-07-31T18:22:49.640Z,24.94
2022-07-31T18:25:27.882Z,25.24
2022-07-31T18:27:58.955Z,25.01
2022-07-31T18:30:38.669Z,25.39
2022-07-31T18:33:24.663Z,25.16
2022-07-31T18:38:40.190Z,26.02
2022-07-31T18:43:57.118Z,25.65
2022-07-31T18:51:00.669Z,26.00
2022-07-31T18:52:17.093Z,25.52
2022-07-31T18:54:49.385Z,25.65
2022-07-31T18:57:33.427Z,25.51
2022-07-31T19:00:23.780Z,25.58
2022-07-31T19:05:53.623Z,26.30
2022-07-31T19:08:24.072Z,26.20
2022-07-31T19:11:01.178Z,26.33
2022-07-31T19:13:32.860Z,25.44
2022-07-31T19:16:02.239Z,25.59
2022-07-31T19:18:32.591Z,25.95
2022-07-31T19:21:17.772Z,26.10
2022-07-31T19:23:53.164Z,25.55
2022-07-31T19:26:23.766Z,25.75
2022-07-31T19:29:02.531Z,25.23
2022-07-31T19:34:05.482Z,24.55
2022-07-31T19:36:38.384Z,25.02
2022-07-31T19:42:14.818Z,24.96
2022-07-31T19:47:23.578Z,25.05
2022-07-31T19:49:55.506Z,24.59
2022-07-31T19:52:25.742Z,25.67
2022-07-31T19:54:55.355Z,24.71
2022-07-31T19:57:24.250Z,24.99
2022-07-31T20:02:56.555Z,25.14
2022-07-31T20:05:28.552Z,25.60
2022-07-31T20:08:02.584Z,25.15
2022-07-31T20:10:31.517Z,25.40
2022-07-31T20:13:03.800Z,25.25
2022-07-31T20:15:51.993Z,25.55
2022-07-31T20:18:27.187Z,25.26
2022-07-31T20:20:58.428Z,25.33
2022-07-31T20:23:29.455Z,25.25
2022-07-31T20:26:00.603Z,24.97
2022-07-31T20:28:34.755Z,25.33
2022-07-31T20:31:21.855Z,25.11
2022-07-31T20:33:56.788Z,25.22
2022-07-31T20:36:30.049Z,24.86
2022-07-31T20:39:01.656Z,24.64
2022-07-31T20:41:31.134Z,24.04
2022-07-31T20:44:04.205Z,24.24
2022-07-31T20:49:08.884Z,24.14
2022-07-31T20:51:57.554Z,24.12
2022-07-31T20:54:34.372Z,24.10
2022-07-31T20:57:07.712Z,24.06
2022-07-31T20:59:37.678Z,24.03
2022-07-31T21:04:48.734Z,26.12
2022-07-31T21:07:26.023Z,24.05
2022-07-31T21:09:59.018Z,23.90
2022-07-31T21:15:42.555Z,23.95
2022-07-31T21:18:14.639Z,24.13
2022-07-31T21:20:49.701Z,23.94
2022-07-31T21:23:28.738Z,26.12
2022-07-31T21:25:59.753Z,24.01
2022-07-31T21:28:29.513Z,24.29
2022-07-31T21:31:07.608Z,24.77
2022-07-31T21:33:37.593Z,24.74
2022-07-31T21:36:07.246Z,24.80
2022-07-31T21:38:42.493Z,24.85
2022-07-31T21:41:13.447Z,24.25
2022-07-31T21:43:58.167Z,24.18
2022-07-31T21:46:31.302Z,24.11
2022-07-31T21:49:04.302Z,24.15
2022-07-31T21:51:33.618Z,24.03
2022-07-31T21:54:03.522Z,24.18
2022-07-31T21:56:31.880Z,24.31
2022-07-31T21:59:01.455Z,24.26
2022-07-31T22:01:34.694Z,24.92
2022-07-31T22:04:04.754Z,24.38
2022-07-31T22:06:53.100Z,23.74
2022-07-31T22:09:26.221Z,23.93
2022-07-31T22:12:05.278Z,24.19
2022-07-31T22:14:34.186Z,24.29
2022-07-31T22:17:07.542Z,24.61
2022-07-31T22:19:51.520Z,24.00
2022-07-31T22:22:25.945Z,24.56
2022-07-31T22:25:00.315Z,24.63
2022-07-31T22:30:28.573Z,24.24
2022-07-31T22:33:02.241Z,24.08
2022-07-31T22:35:33.279Z,24.12
2022-07-31T22:38:02.009Z,23.72
2022-07-31T22:40:34.545Z,24.09
2022-07-31T22:43:04.790Z,24.12
2022-07-31T22:45:53.620Z,23.87
2022-07-31T22:48:25.790Z,24.01
2022-07-31T22:50:59.464Z,24.03
2022-07-31T22:53:30.133Z,25.88
2022-07-31T22:56:00.891Z,24.38
2022-07-31T22:58:29.443Z,24.08
2022-07-31T23:00:58.185Z,24.02
2022-07-31T23:03:28.065Z,23.68
2022-07-31T23:06:30.571Z,24.50
2022-07-31T23:08:55.289Z,23.89
2022-07-31T23:13:52.956Z,23.49
2022-07-31T23:16:30.461Z,23.68
2022-07-31T23:18:58.902Z,23.64
2022-07-31T23:21:31.627Z,23.40
2022-07-31T23:24:00.479Z,23.52
2022-07-31T23:26:30.368Z,23.52
2022-07-31T23:31:29.419Z,23.52
2022-07-31T23:34:00.449Z,23.28
2022-07-31T23:39:05.334Z,23.13
2022-07-31T23:41:53.638Z,22.86
2022-07-31T23:44:27.764Z,23.32
2022-07-31T23:46:59.689Z,23.44
2022-07-31T23:49:34.017Z,22.98
2022-07-31T23:52:10.969Z,22.94
2022-07-31T23:54:42.887Z,23.16
